sensor_id;sensor_type;location;lat;lon;timestamp;temperature;humidity
17774;DHT22;9011;33.236;-97.118;2023-04-25T00:00:42;20.00;99.90
17774;DHT22;9011;33.236;-97.118;2023-04-25T00:03:10;20.00;99.90
17774;DHT22;9011;33.236;-97.118;2023-04-25T00:05:40;20.00;99.90
17774;DHT22;9011;33.236;-97.118;2023-04-25T00:08:09;20.10;99.90
17774;DHT22;9011;33.236;-97.118;2023-04-25T00:10:37;20.00;99.90
17774;DHT22;9011;33.236;-97.118;2023-04-25T00:13:06;20.00;99.90
17774;DHT22;9011;33.236;-97.118;2023-04-25T00:15:34;19.90;99.90
17774;DHT22;9011;33.236;-97.118;2023-04-25T00:18:04;19.90;99.90
17774;DHT22;9011;33.236;-97.118;2023-04-25T00:20:33;19.60;99.90
17774;DHT22;9011;33.236;-97.118;2023-04-25T00:23:05;19.70;99.90
17774;DHT22;9011;33.236;-97.118;2023-04-25T00:25:34;19.60;99.90
17774;DHT22;9011;33.236;-97.118;2023-04-25T00:28:02;19.60;99.90
17774;DHT22;9011;33.236;-97.118;2023-04-25T00:30:30;19.50;99.90
17774;DHT22;9011;33.236;-97.118;2023-04-25T00:32:59;19.30;99.90
17774;DHT22;9011;33.236;-97.118;2023-04-25T00:35:27;19.20;99.90
17774;DHT22;9011;33.236;-97.118;2023-04-25T00:37:56;19.20;99.90
17774;DHT22;9011;33.236;-97.118;2023-04-25T00:40:25;19.10;99.90
17774;DHT22;9011;33.236;-97.118;2023-04-25T00:42:54;19.10;99.90
17774;DHT22;9011;33.236;-97.118;2023-04-25T00:45:26;19.20;99.90
17774;DHT22;9011;33.236;-97.118;2023-04-25T00:47:55;19.20;99.90
17774;DHT22;9011;33.236;-97.118;2023-04-25T00:50:23;19.10;99.90
17774;DHT22;9011;33.236;-97.118;2023-04-25T00:52:52;19.10;99.90
17774;DHT22;9011;33.236;-97.118;2023-04-25T00:55:21;19.00;99.90
17774;DHT22;9011;33.236;-97.118;2023-04-25T00:57:51;19.10;99.90
17774;DHT22;9011;33.236;-97.118;2023-04-25T01:00:20;19.10;99.90
17774;DHT22;9011;33.236;-97.118;2023-04-25T01:02:48;19.00;99.90
17774;DHT22;9011;33.236;-97.118;2023-04-25T01:05:17;19.00;99.90
17774;DHT22;9011;33.236;-97.118;2023-04-25T01:07:46;18.90;99.90
17774;DHT22;9011;33.236;-97.118;2023-04-25T01:10:15;18.80;99.90
17774;DHT22;9011;33.236;-97.118;2023-04-25T01:12:43;18.70;99.90
17774;DHT22;9011;33.236;-97.118;2023-04-25T01:15:13;18.50;99.90
17774;DHT22;9011;33.236;-97.118;2023-04-25T01:17:41;18.30;99.90
17774;DHT22;9011;33.236;-97.118;2023-04-25T01:20:11;18.10;99.90
17774;DHT22;9011;33.236;-97.118;2023-04-25T01:22:42;18.00;99.90
17774;DHT22;9011;33.236;-97.118;2023-04-25T01:25:11;17.70;99.90
17774;DHT22;9011;33.236;-97.118;2023-04-25T01:27:39;17.50;99.90
17774;DHT22;9011;33.236;-97.118;2023-04-25T01:30:08;17.30;99.90
17774;DHT22;9011;33.236;-97.118;2023-04-25T01:32:37;17.30;99.90
17774;DHT22;9011;33.236;-97.118;2023-04-25T01:35:07;17.20;99.90
17774;DHT22;9011;33.236;-97.118;2023-04-25T01:37:36;17.10;99.90
17774;DHT22;9011;33.236;-97.118;2023-04-25T01:40:07;17.00;99.90
17774;DHT22;9011;33.236;-97.118;2023-04-25T01:42:37;16.90;99.90
17774;DHT22;9011;33.236;-97.118;2023-04-25T01:45:07;17.00;99.90
17774;DHT22;9011;33.236;-97.118;2023-04-25T01:47:36;17.00;99.90
17774;DHT22;9011;33.236;-97.118;2023-04-25T01:50:07;17.10;99.90
17774;DHT22;9011;33.236;-97.118;2023-04-25T01:52:36;17.10;99.90
17774;DHT22;9011;33.236;-97.118;2023-04-25T01:55:07;17.30;99.90
17774;DHT22;9011;33.236;-97.118;2023-04-25T01:57:36;17.40;99.90
17774;DHT22;9011;33.236;-97.118;2023-04-25T02:00:07;17.50;99.90
17774;DHT22;9011;33.236;-97.118;2023-04-25T02:02:36;17.50;99.90
17774;DHT22;9011;33.236;-97.118;2023-04-25T02:05:08;17.50;99.90
17774;DHT22;9011;33.236;-97.118;2023-04-25T02:07:37;17.50;99.90
17774;DHT22;9011;33.236;-97.118;2023-04-25T02:10:10;17.60;99.90
17774;DHT22;9011;33.236;-97.118;2023-04-25T02:12:38;17.70;99.90
17774;DHT22;9011;33.236;-97.118;2023-04-25T02:15:08;17.70;99.90
17774;DHT22;9011;33.236;-97.118;2023-04-25T02:17:40;17.50;99.90
17774;DHT22;9011;33.236;-97.118;2023-04-25T02:20:09;17.60;99.90
17774;DHT22;9011;33.236;-97.118;2023-04-25T02:22:37;17.60;99.90
17774;DHT22;9011;33.236;-97.118;2023-04-25T02:25:10;17.60;99.90
17774;DHT22;9011;33.236;-97.118;2023-04-25T02:27:45;17.50;99.90
17774;DHT22;9011;33.236;-97.118;2023-04-25T02:30:18;17.60;99.90
17774;DHT22;9011;33.236;-97.118;2023-04-25T02:32:54;17.60;99.90
17774;DHT22;9011;33.236;-97.118;2023-04-25T02:35:23;17.60;99.90
17774;DHT22;9011;33.236;-97.118;2023-04-25T02:37:51;17.70;99.90
17774;DHT22;9011;33.236;-97.118;2023-04-25T02:40:21;17.70;99.90
17774;DHT22;9011;33.236;-97.118;2023-04-25T02:42:49;17.70;99.90
17774;DHT22;9011;33.236;-97.118;2023-04-25T02:45:23;17.70;99.90
17774;DHT22;9011;33.236;-97.118;2023-04-25T02:47:51;17.70;99.90
17774;DHT22;9011;33.236;-97.118;2023-04-25T02:50:25;17.70;99.90
17774;DHT22;9011;33.236;-97.118;2023-04-25T02:53:01;17.70;99.90
17774;DHT22;9011;33.236;-97.118;2023-04-25T02:55:45;17.70;99.90
17774;DHT22;9011;33.236;-97.118;2023-04-25T02:58:13;17.70;99.90
17774;DHT22;9011;33.236;-97.118;2023-04-25T03:00:44;17.70;99.90
17774;DHT22;9011;33.236;-97.118;2023-04-25T03:03:12;17.80;99.90
17774;DHT22;9011;33.236;-97.118;2023-04-25T03:05:43;17.70;99.90
17774;DHT22;9011;33.236;-97.118;2023-04-25T03:08:13;17.70;99.90
17774;DHT22;9011;33.236;-97.118;2023-04-25T03:10:46;17.70;99.90
17774;DHT22;9011;33.236;-97.118;2023-04-25T03:13:14;17.70;99.90
17774;DHT22;9011;33.236;-97.118;2023-04-25T03:15:49;17.70;99.90
17774;DHT22;9011;33.236;-97.118;2023-04-25T03:18:17;17.60;99.90
17774;DHT22;9011;33.236;-97.118;2023-04-25T03:20:46;17.60;99.90
17774;DHT22;9011;33.236;-97.118;2023-04-25T03:23:19;17.60;99.90
17774;DHT22;9011;33.236;-97.118;2023-04-25T03:25:52;17.50;99.90
17774;DHT22;9011;33.236;-97.118;2023-04-25T03:28:26;17.50;99.90
17774;DHT22;9011;33.236;-97.118;2023-04-25T03:30:55;17.50;99.90
17774;DHT22;9011;33.236;-97.118;2023-04-25T03:33:27;17.40;99.90
17774;DHT22;9011;33.236;-97.118;2023-04-25T03:35:59;17.40;99.90
17774;DHT22;9011;33.236;-97.118;2023-04-25T03:38:37;17.40;99.90
17774;DHT22;9011;33.236;-97.118;2023-04-25T03:41:13;17.30;99.90
17774;DHT22;9011;33.236;-97.118;2023-04-25T03:43:50;17.20;99.90
17774;DHT22;9011;33.236;-97.118;2023-04-25T03:46:19;17.20;99.90
17774;DHT22;9011;33.236;-97.118;2023-04-25T03:48:48;17.20;99.90
17774;DHT22;9011;33.236;-97.118;2023-04-25T03:51:20;17.20;99.90
17774;DHT22;9011;33.236;-97.118;2023-04-25T03:53:49;17.20;99.90
17774;DHT22;9011;33.236;-97.118;2023-04-25T03:56:22;17.20;99.90
17774;DHT22;9011;33.236;-97.118;2023-04-25T03:58:54;17.20;99.90
17774;DHT22;9011;33.236;-97.118;2023-04-25T04:01:23;17.20;99.90
17774;DHT22;9011;33.236;-97.118;2023-04-25T04:03:55;17.20;99.90
17774;DHT22;9011;33.236;-97.118;2023-04-25T04:06:26;17.20;99.90
17774;DHT22;9011;33.236;-97.118;2023-04-25T04:09:01;17.20;99.90
17774;DHT22;9011;33.236;-97.118;2023-04-25T04:11:37;17.10;99.90
17774;DHT22;9011;33.236;-97.118;2023-04-25T04:14:06;17.10;99.90
17774;DHT22;9011;33.236;-97.118;2023-04-25T04:16:36;17.10;99.90
17774;DHT22;9011;33.236;-97.118;2023-04-25T04:19:05;17.20;99.90
17774;DHT22;9011;33.236;-97.118;2023-04-25T04:21:33;17.30;99.90
17774;DHT22;9011;33.236;-97.118;2023-04-25T04:24:01;17.20;99.90
17774;DHT22;9011;33.236;-97.118;2023-04-25T04:26:33;17.20;99.90
17774;DHT22;9011;33.236;-97.118;2023-04-25T04:29:05;17.20;99.90
17774;DHT22;9011;33.236;-97.118;2023-04-25T04:31:39;17.30;99.90
17774;DHT22;9011;33.236;-97.118;2023-04-25T04:34:08;17.30;99.90
17774;DHT22;9011;33.236;-97.118;2023-04-25T04:36:37;17.20;99.90
17774;DHT22;9011;33.236;-97.118;2023-04-25T04:39:09;17.20;99.90
17774;DHT22;9011;33.236;-97.118;2023-04-25T04:41:37;17.20;99.90
17774;DHT22;9011;33.236;-97.118;2023-04-25T04:44:16;17.20;99.90
17774;DHT22;9011;33.236;-97.118;2023-04-25T04:46:45;17.20;99.90
17774;DHT22;9011;33.236;-97.118;2023-04-25T04:49:13;17.20;99.90
17774;DHT22;9011;33.236;-97.118;2023-04-25T04:51:44;17.20;99.90
17774;DHT22;9011;33.236;-97.118;2023-04-25T04:54:14;17.20;99.90
17774;DHT22;9011;33.236;-97.118;2023-04-25T04:56:47;17.20;99.90
17774;DHT22;9011;33.236;-97.118;2023-04-25T05:03:07;17.20;99.90
17774;DHT22;9011;33.236;-97.118;2023-04-25T05:05:52;17.20;99.90
17774;DHT22;9011;33.236;-97.118;2023-04-25T05:08:34;17.20;99.90
17774;DHT22;9011;33.236;-97.118;2023-04-25T05:11:33;17.20;99.90
17774;DHT22;9011;33.236;-97.118;2023-04-25T05:14:03;17.20;99.90
17774;DHT22;9011;33.236;-97.118;2023-04-25T05:16:31;17.20;99.90
17774;DHT22;9011;33.236;-97.118;2023-04-25T05:19:05;17.20;99.90
17774;DHT22;9011;33.236;-97.118;2023-04-25T05:21:33;17.20;99.90
17774;DHT22;9011;33.236;-97.118;2023-04-25T05:24:02;17.20;99.90
17774;DHT22;9011;33.236;-97.118;2023-04-25T05:26:31;17.20;99.90
17774;DHT22;9011;33.236;-97.118;2023-04-25T05:28:59;17.20;99.90
17774;DHT22;9011;33.236;-97.118;2023-04-25T05:31:27;17.20;99.90
17774;DHT22;9011;33.236;-97.118;2023-04-25T05:33:56;17.20;99.90
17774;DHT22;9011;33.236;-97.118;2023-04-25T05:36:28;17.20;99.90
17774;DHT22;9011;33.236;-97.118;2023-04-25T05:38:57;17.20;99.90
17774;DHT22;9011;33.236;-97.118;2023-04-25T05:41:25;17.20;99.90
17774;DHT22;9011;33.236;-97.118;2023-04-25T05:44:00;17.10;99.90
17774;DHT22;9011;33.236;-97.118;2023-04-25T05:46:28;17.10;99.90
17774;DHT22;9011;33.236;-97.118;2023-04-25T05:48:57;17.00;99.90
17774;DHT22;9011;33.236;-97.118;2023-04-25T05:51:31;17.10;99.90
17774;DHT22;9011;33.236;-97.118;2023-04-25T05:54:00;17.20;99.90
17774;DHT22;9011;33.236;-97.118;2023-04-25T05:56:28;17.10;99.90
17774;DHT22;9011;33.236;-97.118;2023-04-25T05:59:06;17.10;99.90
17774;DHT22;9011;33.236;-97.118;2023-04-25T06:20:03;17.00;99.90
17774;DHT22;9011;33.236;-97.118;2023-04-25T06:23:20;17.10;99.90
17774;DHT22;9011;33.236;-97.118;2023-04-25T06:29:32;17.10;99.90
17774;DHT22;9011;33.236;-97.118;2023-04-25T06:32:35;17.10;99.90
17774;DHT22;9011;33.236;-97.118;2023-04-25T06:38:42;17.00;99.90
17774;DHT22;9011;33.236;-97.118;2023-04-25T06:41:10;17.10;99.90
17774;DHT22;9011;33.236;-97.118;2023-04-25T06:43:40;17.00;99.90
17774;DHT22;9011;33.236;-97.118;2023-04-25T06:49:59;17.00;99.90
17774;DHT22;9011;33.236;-97.118;2023-04-25T06:56:07;17.00;99.90
17774;DHT22;9011;33.236;-97.118;2023-04-25T06:58:36;17.00;99.90
17774;DHT22;9011;33.236;-97.118;2023-04-25T07:01:05;17.10;99.90
17774;DHT22;9011;33.236;-97.118;2023-04-25T07:03:40;17.00;99.90
17774;DHT22;9011;33.236;-97.118;2023-04-25T07:06:33;17.10;99.90
17774;DHT22;9011;33.236;-97.118;2023-04-25T07:09:04;17.10;99.90
17774;DHT22;9011;33.236;-97.118;2023-04-25T07:11:35;17.10;99.90
17774;DHT22;9011;33.236;-97.118;2023-04-25T07:14:06;17.10;99.90
17774;DHT22;9011;33.236;-97.118;2023-04-25T07:16:37;17.10;99.90
17774;DHT22;9011;33.236;-97.118;2023-04-25T07:19:06;17.10;99.90
17774;DHT22;9011;33.236;-97.118;2023-04-25T07:21:41;17.10;99.90
17774;DHT22;9011;33.236;-97.118;2023-04-25T07:24:10;17.00;99.90
17774;DHT22;9011;33.236;-97.118;2023-04-25T07:26:44;17.00;99.90
17774;DHT22;9011;33.236;-97.118;2023-04-25T07:29:17;17.00;99.90
17774;DHT22;9011;33.236;-97.118;2023-04-25T07:31:51;17.00;99.90
17774;DHT22;9011;33.236;-97.118;2023-04-25T07:34:23;17.00;99.90
17774;DHT22;9011;33.236;-97.118;2023-04-25T07:36:55;17.00;99.90
17774;DHT22;9011;33.236;-97.118;2023-04-25T07:39:30;17.10;99.90
17774;DHT22;9011;33.236;-97.118;2023-04-25T07:45:43;17.00;99.90
17774;DHT22;9011;33.236;-97.118;2023-04-25T07:55:49;16.90;99.90
17774;DHT22;9011;33.236;-97.118;2023-04-25T08:02:19;16.80;99.90
17774;DHT22;9011;33.236;-97.118;2023-04-25T08:37:51;16.60;99.90
17774;DHT22;9011;33.236;-97.118;2023-04-25T08:44:01;16.50;99.90
17774;DHT22;9011;33.236;-97.118;2023-04-25T08:46:33;16.50;99.90
17774;DHT22;9011;33.236;-97.118;2023-04-25T08:49:20;16.50;99.90
17774;DHT22;9011;33.236;-97.118;2023-04-25T08:51:53;16.50;99.90
17774;DHT22;9011;33.236;-97.118;2023-04-25T08:54:33;16.50;99.90
17774;DHT22;9011;33.236;-97.118;2023-04-25T08:57:03;16.50;99.90
17774;DHT22;9011;33.236;-97.118;2023-04-25T08:59:36;16.40;99.90
17774;DHT22;9011;33.236;-97.118;2023-04-25T09:02:05;16.50;99.90
17774;DHT22;9011;33.236;-97.118;2023-04-25T09:04:38;16.40;99.90
17774;DHT22;9011;33.236;-97.118;2023-04-25T09:07:10;16.40;99.90
17774;DHT22;9011;33.236;-97.118;2023-04-25T09:09:43;16.40;99.90
17774;DHT22;9011;33.236;-97.118;2023-04-25T09:12:16;16.40;99.90
17774;DHT22;9011;33.236;-97.118;2023-04-25T09:15:08;16.40;99.90
17774;DHT22;9011;33.236;-97.118;2023-04-25T09:17:42;16.30;99.90
17774;DHT22;9011;33.236;-97.118;2023-04-25T09:20:14;16.20;99.90
17774;DHT22;9011;33.236;-97.118;2023-04-25T09:22:46;16.30;99.90
17774;DHT22;9011;33.236;-97.118;2023-04-25T09:25:20;16.30;99.90
17774;DHT22;9011;33.236;-97.118;2023-04-25T09:27:52;16.20;99.90
17774;DHT22;9011;33.236;-97.118;2023-04-25T09:30:30;16.20;99.90
17774;DHT22;9011;33.236;-97.118;2023-04-25T09:33:05;16.10;99.90
17774;DHT22;9011;33.236;-97.118;2023-04-25T09:35:38;16.10;99.90
17774;DHT22;9011;33.236;-97.118;2023-04-25T09:38:11;16.10;99.90
17774;DHT22;9011;33.236;-97.118;2023-04-25T09:40:51;16.10;99.90
17774;DHT22;9011;33.236;-97.118;2023-04-25T09:43:24;16.20;99.90
17774;DHT22;9011;33.236;-97.118;2023-04-25T09:45:54;16.10;99.90
17774;DHT22;9011;33.236;-97.118;2023-04-25T09:48:27;16.10;99.90
17774;DHT22;9011;33.236;-97.118;2023-04-25T09:51:08;16.00;99.90
17774;DHT22;9011;33.236;-97.118;2023-04-25T09:53:47;16.00;99.90
17774;DHT22;9011;33.236;-97.118;2023-04-25T09:57:08;15.90;99.90
17774;DHT22;9011;33.236;-97.118;2023-04-25T10:00:19;15.90;99.90
17774;DHT22;9011;33.236;-97.118;2023-04-25T10:02:56;15.80;99.90
17774;DHT22;9011;33.236;-97.118;2023-04-25T10:05:34;15.80;99.90
17774;DHT22;9011;33.236;-97.118;2023-04-25T10:08:04;15.80;99.90
17774;DHT22;9011;33.236;-97.118;2023-04-25T10:10:40;15.70;99.90
17774;DHT22;9011;33.236;-97.118;2023-04-25T10:13:16;15.80;99.90
17774;DHT22;9011;33.236;-97.118;2023-04-25T10:15:54;15.80;99.90
17774;DHT22;9011;33.236;-97.118;2023-04-25T10:18:26;15.80;99.90
17774;DHT22;9011;33.236;-97.118;2023-04-25T10:21:00;15.70;99.90
17774;DHT22;9011;33.236;-97.118;2023-04-25T10:23:30;15.70;99.90
17774;DHT22;9011;33.236;-97.118;2023-04-25T10:26:01;15.70;99.90
17774;DHT22;9011;33.236;-97.118;2023-04-25T10:28:58;15.70;99.90
17774;DHT22;9011;33.236;-97.118;2023-04-25T10:31:30;15.70;99.90
17774;DHT22;9011;33.236;-97.118;2023-04-25T10:34:02;15.70;99.90
17774;DHT22;9011;33.236;-97.118;2023-04-25T10:36:32;15.70;99.90
17774;DHT22;9011;33.236;-97.118;2023-04-25T10:39:04;15.70;99.90
17774;DHT22;9011;33.236;-97.118;2023-04-25T10:41:46;15.70;99.90
17774;DHT22;9011;33.236;-97.118;2023-04-25T10:44:19;15.60;99.90
17774;DHT22;9011;33.236;-97.118;2023-04-25T10:46:55;15.60;99.90
17774;DHT22;9011;33.236;-97.118;2023-04-25T10:49:32;15.60;99.90
17774;DHT22;9011;33.236;-97.118;2023-04-25T10:52:16;15.60;99.90
17774;DHT22;9011;33.236;-97.118;2023-04-25T10:54:48;15.50;99.90
17774;DHT22;9011;33.236;-97.118;2023-04-25T10:57:37;15.60;99.90
17774;DHT22;9011;33.236;-97.118;2023-04-25T11:00:17;15.60;99.90
17774;DHT22;9011;33.236;-97.118;2023-04-25T11:02:57;15.50;99.90
17774;DHT22;9011;33.236;-97.118;2023-04-25T11:05:31;15.50;99.90
17774;DHT22;9011;33.236;-97.118;2023-04-25T11:08:11;15.50;99.90
17774;DHT22;9011;33.236;-97.118;2023-04-25T11:10:56;15.50;99.90
17774;DHT22;9011;33.236;-97.118;2023-04-25T11:13:31;15.50;99.90
17774;DHT22;9011;33.236;-97.118;2023-04-25T11:16:02;15.50;99.90
17774;DHT22;9011;33.236;-97.118;2023-04-25T11:18:33;15.50;99.90
17774;DHT22;9011;33.236;-97.118;2023-04-25T11:21:05;15.40;99.90
17774;DHT22;9011;33.236;-97.118;2023-04-25T11:23:34;15.50;99.90
17774;DHT22;9011;33.236;-97.118;2023-04-25T11:26:14;15.40;99.90
17774;DHT22;9011;33.236;-97.118;2023-04-25T11:28:57;15.40;99.90
17774;DHT22;9011;33.236;-97.118;2023-04-25T11:31:29;15.40;99.90
17774;DHT22;9011;33.236;-97.118;2023-04-25T11:34:08;15.40;99.90
17774;DHT22;9011;33.236;-97.118;2023-04-25T11:36:43;15.40;99.90
17774;DHT22;9011;33.236;-97.118;2023-04-25T11:39:12;15.40;99.90
17774;DHT22;9011;33.236;-97.118;2023-04-25T11:41:42;15.30;99.90
17774;DHT22;9011;33.236;-97.118;2023-04-25T11:44:17;15.30;99.90
17774;DHT22;9011;33.236;-97.118;2023-04-25T11:46:48;15.30;99.90
17774;DHT22;9011;33.236;-97.118;2023-04-25T11:49:47;15.20;99.90
17774;DHT22;9011;33.236;-97.118;2023-04-25T11:52:16;15.20;99.90
17774;DHT22;9011;33.236;-97.118;2023-04-25T11:54:45;15.20;99.90
17774;DHT22;9011;33.236;-97.118;2023-04-25T11:57:13;15.20;99.90
17774;DHT22;9011;33.236;-97.118;2023-04-25T11:59:42;15.10;99.90
17774;DHT22;9011;33.236;-97.118;2023-04-25T12:02:24;15.10;99.90
17774;DHT22;9011;33.236;-97.118;2023-04-25T12:04:53;15.20;99.90
17774;DHT22;9011;33.236;-97.118;2023-04-25T12:07:21;15.10;99.90
17774;DHT22;9011;33.236;-97.118;2023-04-25T12:09:55;15.20;99.90
17774;DHT22;9011;33.236;-97.118;2023-04-25T12:12:28;15.10;99.90
17774;DHT22;9011;33.236;-97.118;2023-04-25T12:15:09;15.10;99.90
17774;DHT22;9011;33.236;-97.118;2023-04-25T12:17:44;15.10;99.90
17774;DHT22;9011;33.236;-97.118;2023-04-25T12:20:14;15.10;99.90
17774;DHT22;9011;33.236;-97.118;2023-04-25T12:22:46;15.00;99.90
17774;DHT22;9011;33.236;-97.118;2023-04-25T12:25:34;15.00;99.90
17774;DHT22;9011;33.236;-97.118;2023-04-25T12:28:12;15.10;99.90
17774;DHT22;9011;33.236;-97.118;2023-04-25T12:30:57;15.10;99.90
17774;DHT22;9011;33.236;-97.118;2023-04-25T12:33:31;15.10;99.90
17774;DHT22;9011;33.236;-97.118;2023-04-25T12:36:01;15.10;99.90
17774;DHT22;9011;33.236;-97.118;2023-04-25T12:38:37;15.10;99.90
17774;DHT22;9011;33.236;-97.118;2023-04-25T12:41:07;15.00;99.90
17774;DHT22;9011;33.236;-97.118;2023-04-25T12:43:36;15.10;99.90
17774;DHT22;9011;33.236;-97.118;2023-04-25T12:46:05;15.00;99.90
17774;DHT22;9011;33.236;-97.118;2023-04-25T12:48:36;15.00;99.90
17774;DHT22;9011;33.236;-97.118;2023-04-25T12:51:05;14.90;99.90
17774;DHT22;9011;33.236;-97.118;2023-04-25T12:53:33;14.80;99.90
17774;DHT22;9011;33.236;-97.118;2023-04-25T12:56:04;14.80;99.90
17774;DHT22;9011;33.236;-97.118;2023-04-25T12:58:33;14.70;99.90
17774;DHT22;9011;33.236;-97.118;2023-04-25T13:01:01;14.60;99.90
17774;DHT22;9011;33.236;-97.118;2023-04-25T13:03:30;14.60;99.90
17774;DHT22;9011;33.236;-97.118;2023-04-25T13:06:00;14.50;99.90
17774;DHT22;9011;33.236;-97.118;2023-04-25T13:08:28;14.50;99.90
17774;DHT22;9011;33.236;-97.118;2023-04-25T13:10:56;14.60;99.90
17774;DHT22;9011;33.236;-97.118;2023-04-25T13:13:24;14.50;99.90
17774;DHT22;9011;33.236;-97.118;2023-04-25T13:15:53;14.40;99.90
17774;DHT22;9011;33.236;-97.118;2023-04-25T13:18:22;14.40;99.90
17774;DHT22;9011;33.236;-97.118;2023-04-25T13:20:52;14.40;99.90
17774;DHT22;9011;33.236;-97.118;2023-04-25T13:23:23;14.40;99.90
17774;DHT22;9011;33.236;-97.118;2023-04-25T13:25:51;14.50;99.90
17774;DHT22;9011;33.236;-97.118;2023-04-25T13:28:20;14.50;99.90
17774;DHT22;9011;33.236;-97.118;2023-04-25T13:30:48;14.50;99.90
17774;DHT22;9011;33.236;-97.118;2023-04-25T13:33:16;14.50;99.90
17774;DHT22;9011;33.236;-97.118;2023-04-25T13:35:45;14.50;99.90
17774;DHT22;9011;33.236;-97.118;2023-04-25T13:38:22;14.60;99.90
17774;DHT22;9011;33.236;-97.118;2023-04-25T13:40:51;14.50;99.90
17774;DHT22;9011;33.236;-97.118;2023-04-25T13:43:20;14.60;99.90
17774;DHT22;9011;33.236;-97.118;2023-04-25T13:45:49;14.60;99.90
17774;DHT22;9011;33.236;-97.118;2023-04-25T13:48:18;14.60;99.90
17774;DHT22;9011;33.236;-97.118;2023-04-25T13:50:47;14.60;99.90
17774;DHT22;9011;33.236;-97.118;2023-04-25T13:53:15;14.60;99.90
17774;DHT22;9011;33.236;-97.118;2023-04-25T13:55:45;14.60;99.90
17774;DHT22;9011;33.236;-97.118;2023-04-25T13:58:13;14.70;99.90
17774;DHT22;9011;33.236;-97.118;2023-04-25T14:00:42;14.60;99.90
17774;DHT22;9011;33.236;-97.118;2023-04-25T14:03:12;14.80;99.90
17774;DHT22;9011;33.236;-97.118;2023-04-25T14:05:40;14.70;99.90
17774;DHT22;9011;33.236;-97.118;2023-04-25T14:08:09;14.80;99.90
17774;DHT22;9011;33.236;-97.118;2023-04-25T14:10:38;14.80;99.90
17774;DHT22;9011;33.236;-97.118;2023-04-25T14:13:08;14.70;99.90
17774;DHT22;9011;33.236;-97.118;2023-04-25T14:15:36;14.80;99.90
17774;DHT22;9011;33.236;-97.118;2023-04-25T14:18:05;14.90;99.90
17774;DHT22;9011;33.236;-97.118;2023-04-25T14:20:33;14.90;99.90
17774;DHT22;9011;33.236;-97.118;2023-04-25T14:23:02;15.00;99.90
17774;DHT22;9011;33.236;-97.118;2023-04-25T14:25:30;15.10;99.90
17774;DHT22;9011;33.236;-97.118;2023-04-25T14:27:59;15.20;99.90
17774;DHT22;9011;33.236;-97.118;2023-04-25T14:30:29;15.30;99.90
17774;DHT22;9011;33.236;-97.118;2023-04-25T14:32:57;15.50;99.90
17774;DHT22;9011;33.236;-97.118;2023-04-25T14:35:25;15.60;99.90
17774;DHT22;9011;33.236;-97.118;2023-04-25T14:37:55;15.90;99.90
17774;DHT22;9011;33.236;-97.118;2023-04-25T14:40:23;15.90;99.90
17774;DHT22;9011;33.236;-97.118;2023-04-25T14:42:51;16.00;99.90
17774;DHT22;9011;33.236;-97.118;2023-04-25T14:45:20;16.10;99.90
17774;DHT22;9011;33.236;-97.118;2023-04-25T14:47:50;16.20;99.90
17774;DHT22;9011;33.236;-97.118;2023-04-25T14:50:18;16.20;99.90
17774;DHT22;9011;33.236;-97.118;2023-04-25T14:52:47;16.30;99.90
17774;DHT22;9011;33.236;-97.118;2023-04-25T14:55:15;16.30;99.90
17774;DHT22;9011;33.236;-97.118;2023-04-25T14:57:43;16.40;99.90
17774;DHT22;9011;33.236;-97.118;2023-04-25T15:00:13;16.50;99.90
17774;DHT22;9011;33.236;-97.118;2023-04-25T15:02:42;16.60;99.90
17774;DHT22;9011;33.236;-97.118;2023-04-25T15:05:14;16.60;99.90
17774;DHT22;9011;33.236;-97.118;2023-04-25T15:07:43;16.80;99.90
17774;DHT22;9011;33.236;-97.118;2023-04-25T15:10:11;17.00;99.90
17774;DHT22;9011;33.236;-97.118;2023-04-25T15:12:42;16.90;99.90
17774;DHT22;9011;33.236;-97.118;2023-04-25T15:15:11;17.00;99.90
17774;DHT22;9011;33.236;-97.118;2023-04-25T15:17:40;17.20;99.90
17774;DHT22;9011;33.236;-97.118;2023-04-25T15:20:10;17.10;99.90
17774;DHT22;9011;33.236;-97.118;2023-04-25T15:22:41;17.10;99.90
17774;DHT22;9011;33.236;-97.118;2023-04-25T15:25:10;17.10;99.90
17774;DHT22;9011;33.236;-97.118;2023-04-25T15:27:39;17.30;99.90
17774;DHT22;9011;33.236;-97.118;2023-04-25T15:30:10;17.30;99.90
17774;DHT22;9011;33.236;-97.118;2023-04-25T15:32:41;17.30;99.90
17774;DHT22;9011;33.236;-97.118;2023-04-25T15:35:10;17.30;99.90
17774;DHT22;9011;33.236;-97.118;2023-04-25T15:37:40;17.40;99.90
17774;DHT22;9011;33.236;-97.118;2023-04-25T15:40:11;17.30;99.90
17774;DHT22;9011;33.236;-97.118;2023-04-25T15:42:40;17.40;99.90
17774;DHT22;9011;33.236;-97.118;2023-04-25T15:45:10;17.50;99.90
17774;DHT22;9011;33.236;-97.118;2023-04-25T15:47:39;17.60;99.90
17774;DHT22;9011;33.236;-97.118;2023-04-25T15:50:09;17.80;99.90
17774;DHT22;9011;33.236;-97.118;2023-04-25T15:52:40;17.80;99.90
17774;DHT22;9011;33.236;-97.118;2023-04-25T15:55:09;17.70;99.90
17774;DHT22;9011;33.236;-97.118;2023-04-25T15:57:38;17.70;99.90
17774;DHT22;9011;33.236;-97.118;2023-04-25T16:00:08;17.50;99.90
17774;DHT22;9011;33.236;-97.118;2023-04-25T16:02:38;17.40;99.90
17774;DHT22;9011;33.236;-97.118;2023-04-25T16:05:07;17.40;99.90
17774;DHT22;9011;33.236;-97.118;2023-04-25T16:07:36;17.30;99.90
17774;DHT22;9011;33.236;-97.118;2023-04-25T16:10:07;17.30;99.90
17774;DHT22;9011;33.236;-97.118;2023-04-25T16:12:36;17.30;99.90
17774;DHT22;9011;33.236;-97.118;2023-04-25T16:15:05;17.10;99.90
17774;DHT22;9011;33.236;-97.118;2023-04-25T16:17:34;17.40;99.90
17774;DHT22;9011;33.236;-97.118;2023-04-25T16:20:03;17.10;99.90
17774;DHT22;9011;33.236;-97.118;2023-04-25T16:22:35;17.20;99.90
17774;DHT22;9011;33.236;-97.118;2023-04-25T16:25:06;17.10;99.90
17774;DHT22;9011;33.236;-97.118;2023-04-25T16:27:35;17.10;99.90
17774;DHT22;9011;33.236;-97.118;2023-04-25T16:30:06;17.20;99.90
17774;DHT22;9011;33.236;-97.118;2023-04-25T16:32:35;17.30;99.90
17774;DHT22;9011;33.236;-97.118;2023-04-25T16:35:04;17.40;99.90
17774;DHT22;9011;33.236;-97.118;2023-04-25T16:37:32;17.40;99.90
17774;DHT22;9011;33.236;-97.118;2023-04-25T16:40:00;17.20;99.90
17774;DHT22;9011;33.236;-97.118;2023-04-25T16:42:30;17.20;99.90
17774;DHT22;9011;33.236;-97.118;2023-04-25T16:44:59;17.20;99.90
17774;DHT22;9011;33.236;-97.118;2023-04-25T16:47:27;17.30;99.90
17774;DHT22;9011;33.236;-97.118;2023-04-25T16:49:55;17.10;99.90
17774;DHT22;9011;33.236;-97.118;2023-04-25T16:52:24;17.10;99.90
17774;DHT22;9011;33.236;-97.118;2023-04-25T16:54:52;17.10;99.90
17774;DHT22;9011;33.236;-97.118;2023-04-25T16:57:20;17.20;99.90
17774;DHT22;9011;33.236;-97.118;2023-04-25T16:59:50;17.20;99.90
17774;DHT22;9011;33.236;-97.118;2023-04-25T17:02:19;17.30;99.90
17774;DHT22;9011;33.236;-97.118;2023-04-25T17:04:48;17.20;99.90
17774;DHT22;9011;33.236;-97.118;2023-04-25T17:07:16;17.10;99.90
17774;DHT22;9011;33.236;-97.118;2023-04-25T17:09:49;17.20;99.90
17774;DHT22;9011;33.236;-97.118;2023-04-25T17:12:18;17.30;99.90